Time;durP1;ratioP1;P1;durP2;ratioP2;P2;SDS_P1;SDS_P2;PMS_P1;PMS_P2;Temp;Humidity;BMP_temperature;BMP_pressure;BME280_temperature;BME280_humidity;BME280_pressure;Samples;Min_cycle;Max_cycle;Signal;HPM_P1;HPM_P2
2022/06/09 00:02:18;;;;;;;4.05;3.40;;;;;;;20.40;100.00;100405.25;5114525;28;20111;-75
2022/06/09 00:05:06;;;;;;;8.98;4.00;;;;;;;20.47;100.00;100400.41;5115379;28;20027;-76
2022/06/09 00:07:55;;;;;;;4.70;3.30;;;;;;;20.44;100.00;100389.94;5116038;28;20110;-75
2022/06/09 00:10:45;;;;;;;5.45;3.33;;;;;;;20.37;100.00;100402.78;5116263;28;20031;-75
2022/06/09 00:13:31;;;;;;;6.57;3.30;;;;;;;20.10;100.00;100393.00;5114561;28;20050;-74
2022/06/09 00:16:17;;;;;;;4.60;3.30;;;;;;;20.16;100.00;100396.13;5116468;28;20041;-74
2022/06/09 00:19:05;;;;;;;5.95;3.30;;;;;;;19.92;100.00;100386.97;5114848;28;20088;-74
2022/06/09 00:21:51;;;;;;;6.50;3.08;;;;;;;19.72;100.00;100383.81;5113928;28;20088;-76
2022/06/09 00:24:36;;;;;;;3.92;3.00;;;;;;;20.11;100.00;100382.25;5099456;28;20091;-74
2022/06/09 00:27:22;;;;;;;3.60;3.28;;;;;;;19.99;100.00;100379.44;5114436;28;20035;-75
2022/06/09 00:30:10;;;;;;;4.20;3.25;;;;;;;19.93;100.00;100378.03;5113515;28;20364;-75
2022/06/09 00:32:56;;;;;;;6.90;3.63;;;;;;;20.13;100.00;100385.66;5114635;28;20019;-75
2022/06/09 00:35:42;;;;;;;3.80;3.40;;;;;;;20.35;100.00;100383.41;5115834;28;20035;-74
2022/06/09 00:38:28;;;;;;;4.32;3.20;;;;;;;20.27;100.00;100385.69;5115567;28;20106;-75
2022/06/09 00:41:14;;;;;;;6.38;3.50;;;;;;;20.23;100.00;100380.63;5115662;28;20023;-75
2022/06/09 00:44:16;;;;;;;3.90;3.35;;;;;;;20.13;100.00;100379.50;5114345;28;20032;-75
2022/06/09 00:47:15;;;;;;;9.15;3.85;;;;;;;19.89;100.00;100376.50;5114144;28;20032;-75
2022/06/09 00:50:05;;;;;;;4.80;3.78;;;;;;;19.99;100.00;100375.00;5115285;28;20033;-75
2022/06/09 00:52:57;;;;;;;5.93;3.72;;;;;;;19.76;100.00;100374.69;5114171;28;20023;-74
2022/06/09 00:55:44;;;;;;;4.25;3.85;;;;;;;20.05;100.00;100382.59;5099708;28;20035;-75
2022/06/09 00:58:34;;;;;;;12.05;5.20;;;;;;;20.07;100.00;100383.38;5114979;28;20031;-75
2022/06/09 01:01:20;;;;;;;13.73;4.88;;;;;;;20.31;100.00;100389.00;5115506;28;20447;-76
2022/06/09 01:04:09;;;;;;;9.77;5.10;;;;;;;20.40;100.00;100389.28;5099014;28;20467;-75
2022/06/09 01:07:05;;;;;;;6.75;4.38;;;;;;;20.34;100.00;100384.34;5099406;28;20035;-76
2022/06/09 01:09:50;;;;;;;8.15;4.32;;;;;;;20.37;100.00;100386.81;5114170;28;20023;-76
2022/06/09 01:12:40;;;;;;;7.30;4.10;;;;;;;20.39;100.00;100382.25;5113736;28;20031;-76
2022/06/09 01:15:50;;;;;;;7.00;3.83;;;;;;;20.31;100.00;100378.34;5115827;28;20019;-75
2022/06/09 01:19:04;;;;;;;6.15;4.40;;;;;;;20.02;100.00;100381.94;5113563;28;20028;-75
2022/06/09 01:21:55;;;;;;;5.55;3.90;;;;;;;20.26;100.00;100381.31;5082912;28;20482;-75
2022/06/09 01:25:12;;;;;;;4.00;3.55;;;;;;;20.22;100.00;100379.81;5099785;28;20107;-76
2022/06/09 01:28:19;;;;;;;6.38;3.78;;;;;;;20.02;100.00;100379.28;5098991;28;20415;-75
2022/06/09 01:31:24;;;;;;;5.28;4.10;;;;;;;20.22;100.00;100378.94;5113016;28;20038;-75
2022/06/09 01:34:33;;;;;;;7.05;3.80;;;;;;;20.40;100.00;100380.44;5115351;28;20034;-75
2022/06/09 01:37:27;;;;;;;8.80;3.90;;;;;;;20.37;100.00;100380.66;5114148;28;20379;-76
2022/06/09 01:40:17;;;;;;;5.60;3.83;;;;;;;20.30;100.00;100379.31;5115120;28;20060;-75
2022/06/09 01:43:05;;;;;;;4.97;3.90;;;;;;;20.47;100.00;100387.09;5113992;28;20016;-76
2022/06/09 01:46:22;;;;;;;6.80;3.60;;;;;;;20.59;100.00;100384.50;5115530;28;20023;-75
2022/06/09 01:49:21;;;;;;;4.90;4.15;;;;;;;20.42;100.00;100386.53;5109054;28;20032;-74
2022/06/09 01:52:07;;;;;;;8.25;4.47;;;;;;;20.34;100.00;100384.34;5119034;28;20455;-75
2022/06/09 01:54:55;;;;;;;6.47;4.28;;;;;;;20.26;100.00;100388.44;5116796;28;20507;-75
2022/06/09 01:57:42;;;;;;;8.20;4.50;;;;;;;20.61;100.00;100389.75;5118347;28;20032;-75
2022/06/09 02:00:29;;;;;;;7.20;4.95;;;;;;;20.38;100.00;100390.34;5102667;28;20028;-74
2022/06/09 02:03:20;;;;;;;7.03;4.60;;;;;;;20.27;100.00;100387.47;5118493;28;20102;-75
2022/06/09 02:06:09;;;;;;;6.30;4.80;;;;;;;20.21;100.00;100388.72;5117560;28;20035;-75
2022/06/09 02:08:55;;;;;;;7.80;4.43;;;;;;;20.44;100.00;100396.13;5101898;28;20023;-76
2022/06/09 02:11:51;;;;;;;6.25;4.60;;;;;;;20.44;100.00;100398.78;5102010;28;20451;-75
2022/06/09 02:14:39;;;;;;;7.82;4.50;;;;;;;20.50;100.00;100411.72;5118380;28;20032;-75
2022/06/09 02:17:24;;;;;;;12.70;5.00;;;;;;;20.43;100.00;100405.06;5117014;28;20028;-75
2022/06/09 02:20:12;;;;;;;6.75;4.57;;;;;;;20.74;100.00;100420.78;5116500;28;20055;-75
2022/06/09 02:22:58;;;;;;;6.28;4.40;;;;;;;20.67;100.00;100403.50;5102863;28;20020;-76
2022/06/09 02:25:44;;;;;;;5.35;4.38;;;;;;;20.40;100.00;100407.91;5117969;28;20047;-75
2022/06/09 02:28:31;;;;;;;9.68;4.63;;;;;;;20.20;100.00;100410.94;5117380;28;20031;-75
2022/06/09 02:31:19;;;;;;;6.25;4.32;;;;;;;20.56;100.00;100408.66;5118044;28;20027;-76
2022/06/09 02:34:04;;;;;;;6.55;4.60;;;;;;;20.69;100.00;100414.06;5118104;28;20462;-76
2022/06/09 02:36:50;;;;;;;7.80;4.78;;;;;;;20.70;100.00;100403.28;5116572;28;20024;-75
2022/06/09 02:39:36;;;;;;;7.95;5.30;;;;;;;20.69;100.00;100412.25;5117114;28;20028;-75
2022/06/09 02:42:22;;;;;;;11.43;4.80;;;;;;;20.27;100.00;100417.59;5116750;28;20035;-75
2022/06/09 02:45:09;;;;;;;5.97;4.50;;;;;;;20.19;100.00;100416.34;5118061;28;20027;-74
2022/06/09 02:47:54;;;;;;;9.00;4.82;;;;;;;19.69;100.00;100418.53;5116739;28;20038;-76
2022/06/09 02:50:41;;;;;;;7.38;4.47;;;;;;;19.92;100.00;100415.34;5102432;28;20539;-74
2022/06/09 02:53:27;;;;;;;8.40;4.70;;;;;;;20.35;100.00;100419.78;5102407;28;20054;-74
2022/06/09 02:56:13;;;;;;;7.85;4.30;;;;;;;19.77;100.00;100414.47;5100992;28;20456;-75
2022/06/09 02:58:58;;;;;;;10.57;4.60;;;;;;;19.64;100.00;100413.47;5116554;28;20023;-76
2022/06/09 03:01:44;;;;;;;8.90;4.82;;;;;;;19.54;100.00;100415.00;5114401;28;20024;-76
2022/06/09 03:04:30;;;;;;;6.75;4.57;;;;;;;19.63;100.00;100411.78;5115501;28;20110;-76
2022/06/09 03:07:16;;;;;;;9.63;5.03;;;;;;;19.65;100.00;100420.50;5099453;28;20035;-76
2022/06/09 03:10:02;;;;;;;11.18;4.95;;;;;;;19.18;100.00;100422.41;5115865;28;20477;-76
2022/06/09 03:12:48;;;;;;;8.20;4.40;;;;;;;19.43;100.00;100419.19;5116383;28;20066;-76
2022/06/09 03:15:35;;;;;;;6.97;4.45;;;;;;;19.65;100.00;100414.34;5115075;28;20070;-76
2022/06/09 03:18:21;;;;;;;7.80;4.45;;;;;;;19.89;100.00;100413.72;5115844;28;20028;-76
2022/06/09 03:21:07;;;;;;;6.72;4.65;;;;;;;19.78;100.00;100420.66;5117542;28;20448;-76
2022/06/09 03:23:53;;;;;;;6.20;4.68;;;;;;;19.50;100.00;100420.56;5116034;28;20035;-76
2022/06/09 03:26:39;;;;;;;8.77;4.90;;;;;;;19.61;100.00;100416.31;5135951;27;20475;-77
2022/06/09 03:29:25;;;;;;;8.98;5.35;;;;;;;19.78;100.00;100402.91;5136805;27;20385;-77
2022/06/09 03:32:11;;;;;;;10.77;4.40;;;;;;;19.97;100.00;100400.81;5135840;27;20051;-76
2022/06/09 03:34:57;;;;;;;14.05;4.40;;;;;;;19.81;100.00;100400.03;5136605;27;20478;-76
2022/06/09 03:37:42;;;;;;;6.88;4.40;;;;;;;19.54;100.00;100411.47;5136135;27;20035;-76
2022/06/09 03:40:29;;;;;;;6.30;3.90;;;;;;;19.43;100.00;100409.44;5135718;27;20470;-76
2022/06/09 03:43:15;;;;;;;6.10;4.03;;;;;;;19.46;100.00;100409.25;5136318;27;20424;-75
2022/06/09 03:46:02;;;;;;;7.32;4.25;;;;;;;19.60;100.00;100406.63;5135480;27;20019;-76
2022/06/09 03:48:48;;;;;;;6.95;4.40;;;;;;;19.66;100.00;100406.28;5135119;27;20035;-76
2022/06/09 03:51:34;;;;;;;6.85;4.40;;;;;;;19.92;100.00;100402.03;5136646;27;20044;-76
2022/06/09 03:54:19;;;;;;;7.70;4.55;;;;;;;20.07;100.00;100401.97;5135385;27;20066;-77
2022/06/09 03:57:05;;;;;;;9.07;4.28;;;;;;;20.07;100.00;100401.97;5135842;27;20027;-76
2022/06/09 03:59:51;;;;;;;6.60;3.83;;;;;;;20.13;100.00;100395.47;5135907;27;20019;-76
2022/06/09 04:02:37;;;;;;;8.43;4.85;;;;;;;20.52;100.00;100395.63;5121705;27;20030;-75
2022/06/09 04:05:23;;;;;;;10.48;4.95;;;;;;;20.28;100.00;100392.72;5136563;27;20039;-78
2022/06/09 04:08:11;;;;;;;8.57;4.20;;;;;;;20.65;100.00;100401.91;5135307;27;20051;-76
2022/06/09 04:11:00;;;;;;;6.85;4.68;;;;;;;20.80;100.00;100398.25;5136096;27;20337;-76
2022/06/09 04:13:46;;;;;;;8.63;4.65;;;;;;;20.86;100.00;100398.69;5135250;27;20034;-76
2022/06/09 04:16:42;;;;;;;11.93;4.75;;;;;;;20.81;100.00;100405.31;5135986;27;20023;-77
2022/06/09 04:19:28;;;;;;;7.60;4.60;;;;;;;20.85;100.00;100402.31;5119780;27;20084;-75
2022/06/09 04:22:14;;;;;;;9.32;5.15;;;;;;;21.09;100.00;100399.94;5135551;27;20051;-76
2022/06/09 04:25:00;;;;;;;10.70;4.47;;;;;;;20.72;100.00;100401.41;5114631;28;20122;-76
2022/06/09 04:27:46;;;;;;;5.63;4.13;;;;;;;20.60;100.00;100396.88;5116153;28;20038;-77
2022/06/09 04:30:32;;;;;;;6.80;4.68;;;;;;;20.79;100.00;100396.53;5116086;28;20032;-75
2022/06/09 04:33:18;;;;;;;8.60;4.20;;;;;;;21.16;100.00;100406.53;5114688;28;20024;-76
2022/06/09 04:36:05;;;;;;;7.35;4.63;;;;;;;21.19;100.00;100399.22;5116106;28;20039;-76
2022/06/09 04:38:51;;;;;;;9.43;4.80;;;;;;;21.48;100.00;100395.47;5116265;28;20047;-76
2022/06/09 04:41:38;;;;;;;9.00;4.78;;;;;;;21.73;100.00;100400.88;5115704;28;20019;-75
2022/06/09 04:44:24;;;;;;;7.78;4.80;;;;;;;21.88;100.00;100391.84;5114158;28;20486;-76
2022/06/09 04:47:10;;;;;;;8.27;4.43;;;;;;;21.95;100.00;100390.44;5114062;28;20059;-75
2022/06/09 04:49:55;;;;;;;8.05;4.50;;;;;;;21.90;100.00;100387.22;5098719;28;20051;-75
2022/06/09 04:52:42;;;;;;;5.95;4.82;;;;;;;21.70;100.00;100393.06;5115853;28;20023;-74
2022/06/09 04:55:27;;;;;;;11.40;6.15;;;;;;;21.48;100.00;100394.59;5100059;28;20043;-75
2022/06/09 04:58:13;;;;;;;10.95;7.28;;;;;;;21.68;100.00;100402.09;5113899;28;20046;-75
2022/06/09 05:00:59;;;;;;;12.07;4.70;;;;;;;21.85;100.00;100408.03;5113529;28;20023;-76
2022/06/09 05:03:47;;;;;;;12.70;5.38;;;;;;;21.90;100.00;100410.41;5115542;28;20032;-76
2022/06/09 05:06:32;;;;;;;15.63;5.47;;;;;;;21.64;100.00;100425.47;5115440;28;20023;-75
2022/06/09 05:09:18;;;;;;;9.98;6.03;;;;;;;21.76;100.00;100419.34;5113380;28;20348;-75
2022/06/09 05:12:04;;;;;;;20.63;8.00;;;;;;;22.09;100.00;100427.69;5113527;28;20016;-75
2022/06/09 05:14:52;;;;;;;9.13;6.80;;;;;;;22.08;100.00;100425.13;5113208;28;20123;-76
2022/06/09 05:17:37;;;;;;;13.45;7.40;;;;;;;22.27;100.00;100423.72;5099317;28;20027;-75
2022/06/09 05:20:24;;;;;;;12.13;6.00;;;;;;;22.14;100.00;100430.06;5113777;28;20019;-75
2022/06/09 05:23:10;;;;;;;15.05;5.85;;;;;;;22.25;100.00;100422.13;5115536;28;20373;-75
2022/06/09 05:25:58;;;;;;;10.00;5.88;;;;;;;22.43;100.00;100421.69;5101575;28;20052;-75
2022/06/09 05:28:44;;;;;;;9.07;4.00;;;;;;;22.06;100.00;100427.06;5103280;28;20027;-75
2022/06/09 05:31:29;;;;;;;10.05;4.45;;;;;;;22.28;100.00;100436.16;5101695;28;20055;-75
2022/06/09 05:34:15;;;;;;;9.50;4.15;;;;;;;23.02;100.00;100439.66;5119196;28;20034;-75
2022/06/09 05:37:01;;;;;;;8.77;4.20;;;;;;;22.69;100.00;100431.44;5108699;28;20023;-75
2022/06/09 05:46:09;;;;;;;8.35;4.00;;;;;;;23.32;100.00;100421.38;5118721;28;20016;-72
2022/06/09 05:48:55;;;;;;;11.82;3.72;;;;;;;22.89;100.00;100425.50;5102820;28;20080;-71
2022/06/09 05:51:40;;;;;;;8.93;4.43;;;;;;;23.03;100.00;100420.00;5118245;28;20024;-71
2022/06/09 05:54:27;;;;;;;9.88;4.93;;;;;;;22.94;100.00;100418.00;5118476;28;20427;-71
2022/06/09 05:57:13;;;;;;;8.18;4.18;;;;;;;23.35;100.00;100423.00;5117557;28;20028;-72
2022/06/09 05:59:59;;;;;;;7.32;3.78;;;;;;;23.40;100.00;100416.31;5117173;28;20366;-72
2022/06/09 06:02:44;;;;;;;10.73;4.30;;;;;;;23.28;100.00;100425.25;5116911;28;20475;-72
2022/06/09 06:08:34;;;;;;;6.88;5.40;;;;;;;23.47;100.00;100416.75;5117486;28;20110;-72
2022/06/09 06:11:20;;;;;;;4.68;3.75;;;;;;;23.10;100.00;100423.94;5118871;28;20024;-72
2022/06/09 06:14:08;;;;;;;9.68;5.22;;;;;;;23.73;100.00;100417.41;5117057;28;20015;-72
2022/06/09 06:16:54;;;;;;;16.85;5.70;;;;;;;23.76;100.00;100422.56;5116595;28;20107;-72
2022/06/09 06:19:39;;;;;;;15.02;6.60;;;;;;;23.62;100.00;100412.06;5102012;28;20466;-72
2022/06/09 06:22:25;;;;;;;14.20;6.15;;;;;;;23.83;100.00;100408.56;5118278;28;20171;-71
2022/06/09 06:25:12;;;;;;;12.57;5.90;;;;;;;23.65;100.00;100418.03;5119390;28;20050;-74
2022/06/09 06:27:58;;;;;;;9.95;4.85;;;;;;;24.02;100.00;100418.78;5135490;28;20027;-76
2022/06/09 06:30:44;;;;;;;9.80;5.10;;;;;;;23.98;100.00;100419.97;5114254;28;20035;-75
2022/06/09 06:33:30;;;;;;;14.07;5.00;;;;;;;23.82;100.00;100412.22;5118836;28;20023;-75
2022/06/09 06:36:16;;;;;;;16.02;5.03;;;;;;;23.93;100.00;100412.28;5102205;28;20063;-75
2022/06/09 06:39:03;;;;;;;15.27;8.40;;;;;;;24.21;100.00;100419.03;5115854;28;20031;-75
2022/06/09 06:41:49;;;;;;;10.10;5.55;;;;;;;23.92;100.00;100407.06;5116714;28;20031;-75
2022/06/09 06:44:34;;;;;;;11.07;4.60;;;;;;;24.29;100.00;100414.78;5115584;28;20039;-75
2022/06/09 06:47:20;;;;;;;9.05;4.32;;;;;;;23.77;100.00;100419.75;5118494;28;20024;-76
2022/06/09 06:50:07;;;;;;;8.20;4.50;;;;;;;23.98;100.00;100411.94;5115464;28;20114;-75
2022/06/09 06:52:54;;;;;;;7.55;4.40;;;;;;;24.09;100.00;100422.66;5118336;28;20031;-75
2022/06/09 06:55:41;;;;;;;6.68;3.95;;;;;;;24.26;100.00;100408.84;5116016;28;20027;-76
2022/06/09 06:58:26;;;;;;;7.05;4.35;;;;;;;24.08;100.00;100415.59;5117238;28;20042;-76
2022/06/09 07:01:12;;;;;;;11.63;3.90;;;;;;;24.30;100.00;100410.28;5115255;28;20042;-76
2022/06/09 07:03:58;;;;;;;11.63;6.28;;;;;;;24.48;100.00;100414.19;5115718;28;20110;-76
2022/06/09 07:06:44;;;;;;;7.65;3.53;;;;;;;24.85;100.00;100413.81;5116357;28;20106;-76
2022/06/09 07:09:30;;;;;;;7.45;3.60;;;;;;;24.83;100.00;100404.22;5127796;28;20096;-75
2022/06/09 07:12:16;;;;;;;9.65;3.58;;;;;;;24.90;100.00;100410.75;5118378;28;20386;-76
2022/06/09 07:15:28;;;;;;;7.38;4.00;;;;;;;25.01;100.00;100410.75;5102610;28;20053;-77
2022/06/09 07:18:14;;;;;;;10.57;3.40;;;;;;;25.06;100.00;100405.84;5105328;28;20030;-76
2022/06/09 07:21:00;;;;;;;4.97;3.22;;;;;;;25.32;100.00;100415.34;5117424;28;20397;-75
2022/06/09 07:23:46;;;;;;;4.93;2.85;;;;;;;25.32;100.00;100405.44;5115598;28;20032;-75
2022/06/09 07:26:32;;;;;;;5.35;2.67;;;;;;;25.30;100.00;100415.44;5115192;28;20484;-74
2022/06/09 07:29:17;;;;;;;6.28;2.97;;;;;;;25.61;100.00;100419.09;5116403;28;20028;-75
2022/06/09 07:32:04;;;;;;;3.50;2.70;;;;;;;25.86;100.00;100405.31;5116967;28;20023;-75
2022/06/09 07:34:50;;;;;;;4.75;2.88;;;;;;;26.19;100.00;100408.66;5100605;28;20184;-75
2022/06/09 07:37:36;;;;;;;6.53;2.83;;;;;;;25.88;100.00;100401.50;5100475;28;20581;-76
2022/06/09 07:40:22;;;;;;;11.32;3.63;;;;;;;26.14;100.00;100402.00;5116779;28;20027;-74
2022/06/09 07:43:08;;;;;;;6.22;3.60;;;;;;;26.66;100.00;100405.41;5116607;28;20088;-76
2022/06/09 07:45:54;;;;;;;3.67;2.58;;;;;;;26.01;100.00;100406.72;5115215;28;20047;-75
2022/06/09 07:48:40;;;;;;;3.65;2.22;;;;;;;25.84;99.29;100393.88;5100659;28;20024;-76
2022/06/09 07:51:30;;;;;;;5.72;2.58;;;;;;;26.30;98.98;100395.16;5116580;28;20097;-73
2022/06/09 07:54:16;;;;;;;4.72;2.70;;;;;;;26.63;98.46;100402.97;5117420;28;20024;-77
2022/06/09 07:57:02;;;;;;;2.90;2.42;;;;;;;26.48;98.50;100392.69;5100850;28;20024;-77
2022/06/09 07:59:47;;;;;;;16.52;2.95;;;;;;;26.64;97.71;100396.59;5115141;28;20094;-74
2022/06/09 08:02:33;;;;;;;4.80;2.80;;;;;;;26.68;95.84;100391.81;5115299;28;20062;-73
2022/06/09 08:05:26;;;;;;;4.80;2.63;;;;;;;26.16;99.25;100389.28;5101551;28;20027;-74
2022/06/09 08:08:13;;;;;;;2.95;2.30;;;;;;;26.69;96.22;100391.66;5115754;28;20020;-76
2022/06/09 08:10:59;;;;;;;7.25;2.60;;;;;;;27.37;95.63;100399.75;5100955;28;20027;-74
2022/06/09 08:13:45;;;;;;;7.30;2.70;;;;;;;27.20;96.36;100404.97;5117018;28;20475;-73
2022/06/09 08:16:31;;;;;;;4.97;2.53;;;;;;;27.48;93.91;100404.16;5114877;28;20106;-74
2022/06/09 08:19:17;;;;;;;3.40;2.60;;;;;;;27.39;94.77;100403.16;5099064;28;20016;-73
2022/06/09 08:22:03;;;;;;;5.07;3.58;;;;;;;27.93;87.53;100405.31;5115857;28;20041;-72
2022/06/09 08:24:49;;;;;;;7.55;2.72;;;;;;;27.87;92.66;100403.19;5115548;28;20376;-73
2022/06/09 08:27:35;;;;;;;4.05;2.60;;;;;;;27.91;88.72;100401.88;5113837;28;20168;-73
2022/06/09 08:30:21;;;;;;;8.45;2.50;;;;;;;27.75;89.53;100400.72;5099464;28;20043;-73
2022/06/09 08:33:07;;;;;;;5.45;2.38;;;;;;;27.87;89.30;100402.31;5114219;28;20456;-73
2022/06/09 08:35:54;;;;;;;5.95;2.65;;;;;;;28.32;85.68;100406.88;5114547;28;20023;-72
2022/06/09 08:38:43;;;;;;;5.70;2.60;;;;;;;27.78;88.81;100398.63;5115163;28;20023;-75
2022/06/09 08:41:37;;;;;;;5.30;2.60;;;;;;;28.17;89.89;100402.13;5114042;28;20110;-72
2022/06/09 08:44:35;;;;;;;3.92;2.75;;;;;;;28.19;87.48;100397.41;5115341;28;20020;-72
2022/06/09 08:47:35;;;;;;;6.60;2.70;;;;;;;27.64;94.38;100392.81;5115859;28;20127;-72
2022/06/09 08:50:35;;;;;;;5.72;2.80;;;;;;;27.23;94.78;100396.63;5112623;28;20030;-72
2022/06/09 08:53:29;;;;;;;6.72;2.40;;;;;;;27.45;94.44;100391.81;5113612;28;20200;-72
2022/06/09 08:56:26;;;;;;;3.80;2.58;;;;;;;27.87;89.41;100386.16;5114025;28;20042;-71
2022/06/09 08:59:16;;;;;;;4.07;2.53;;;;;;;28.30;84.58;100390.03;5113288;28;20398;-72
2022/06/09 09:02:30;;;;;;;4.03;2.72;;;;;;;28.61;86.02;100391.47;5100331;28;20027;-76
2022/06/09 09:05:32;;;;;;;9.27;4.57;;;;;;;28.86;89.02;100382.72;5115164;28;20148;-73
2022/06/09 09:08:18;;;;;;;9.43;6.00;;;;;;;29.19;83.02;100394.72;5115657;28;20156;-75
2022/06/09 09:11:12;;;;;;;8.80;4.25;;;;;;;28.46;82.35;100389.44;5113200;28;20507;-75
2022/06/09 09:14:04;;;;;;;24.92;12.52;;;;;;;27.57;86.34;100384.47;5112882;28;20056;-76
2022/06/09 09:17:09;;;;;;;3.80;2.50;;;;;;;26.82;91.75;100378.84;5099072;28;20348;-76
2022/06/09 09:20:13;;;;;;;4.75;2.85;;;;;;;27.80;89.12;100372.38;5115761;28;20028;-74
2022/06/09 09:23:15;;;;;;;8.40;3.10;;;;;;;27.88;87.79;100371.72;5115328;28;20532;-74
2022/06/09 09:26:15;;;;;;;4.95;3.00;;;;;;;28.07;86.02;100367.13;5113985;28;20127;-73
2022/06/09 09:29:28;;;;;;;2.85;2.42;;;;;;;28.56;81.95;100366.00;5115762;28;20076;-74
2022/06/09 09:32:20;;;;;;;4.88;2.58;;;;;;;28.27;85.27;100365.19;5115792;28;20030;-73
2022/06/09 09:35:24;;;;;;;5.68;3.03;;;;;;;28.34;83.81;100364.50;5114175;28;20356;-77
2022/06/09 09:38:15;;;;;;;4.68;2.50;;;;;;;28.87;77.93;100373.63;5114569;28;20114;-76
2022/06/09 09:41:01;;;;;;;7.38;2.80;;;;;;;28.28;85.81;100359.66;5115898;28;20019;-76
2022/06/09 09:43:47;;;;;;;5.63;2.58;;;;;;;28.01;86.83;100356.94;5115368;28;20038;-76
2022/06/09 09:46:36;;;;;;;2.97;2.47;;;;;;;28.07;84.43;100358.19;5116119;28;20047;-77
2022/06/09 09:49:32;;;;;;;5.85;2.85;;;;;;;27.27;92.01;100355.00;5115063;28;20035;-75
2022/06/09 09:52:44;;;;;;;5.75;2.75;;;;;;;27.87;89.05;100345.75;5114440;28;20027;-76
2022/06/09 09:55:29;;;;;;;4.30;2.80;;;;;;;27.86;90.40;100354.84;5114566;28;20051;-75
2022/06/09 09:58:26;;;;;;;6.50;3.00;;;;;;;27.10;95.25;100342.22;5115466;28;20325;-76
2022/06/09 10:01:24;;;;;;;5.53;3.30;;;;;;;26.93;94.14;100337.53;5114069;28;20027;-75
2022/06/09 10:10:31;;;;;;;3.75;2.30;;;;;;;27.35;89.83;100326.41;5114594;28;20031;-74
2022/06/09 10:13:17;;;;;;;4.15;2.60;;;;;;;27.40;88.28;100332.19;5118514;28;20371;-77
2022/06/09 10:16:03;;;;;;;5.32;3.00;;;;;;;27.99;88.93;100325.75;5118123;28;20023;-73
2022/06/09 10:18:53;;;;;;;6.20;2.80;;;;;;;27.57;97.60;100324.41;5117430;28;20520;-74
2022/06/09 10:21:52;;;;;;;4.85;2.80;;;;;;;27.63;94.73;100313.03;5118528;28;20038;-74
2022/06/09 10:24:53;;;;;;;3.30;2.55;;;;;;;27.53;95.75;100308.53;5116622;28;20346;-73
2022/06/09 10:27:45;;;;;;;5.18;2.60;;;;;;;26.88;99.45;100315.59;5102783;28;20038;-74
2022/06/09 10:30:43;;;;;;;4.65;2.97;;;;;;;26.79;94.61;100317.28;5117323;28;20031;-75
2022/06/09 10:33:34;;;;;;;9.27;2.85;;;;;;;27.65;91.75;100319.16;5118867;28;20039;-75
2022/06/09 10:36:47;;;;;;;17.85;3.20;;;;;;;27.80;96.49;100307.75;5118409;28;20099;-73
2022/06/09 10:39:47;;;;;;;5.32;2.63;;;;;;;28.21;94.89;100306.53;5102689;28;20020;-72
2022/06/09 10:42:39;;;;;;;6.90;2.90;;;;;;;28.19;96.10;100308.50;5118975;28;20059;-75
2022/06/09 10:45:29;;;;;;;6.50;2.97;;;;;;;28.50;91.41;100304.56;5116688;28;20066;-75
2022/06/09 10:55:27;;;;;;;3.75;2.78;;;;;;;27.30;91.31;100295.53;5115823;28;20063;-75
2022/06/09 10:58:20;;;;;;;3.58;2.70;;;;;;;27.94;92.44;100293.88;5115879;28;20088;-76
2022/06/09 11:01:07;;;;;;;4.43;2.70;;;;;;;27.89;90.68;100292.63;5116421;28;20023;-75
2022/06/09 11:03:58;;;;;;;3.70;2.63;;;;;;;27.41;91.41;100292.69;5120797;28;20031;-76
2022/06/09 11:07:01;;;;;;;5.82;2.78;;;;;;;27.76;88.01;100295.59;5117793;28;20102;-72
2022/06/09 11:09:55;;;;;;;4.75;2.38;;;;;;;28.14;87.37;100286.56;5116089;28;20034;-73
2022/06/09 11:13:18;;;;;;;4.93;2.40;;;;;;;28.44;86.97;100287.16;5117078;28;20030;-72
2022/06/09 11:16:22;;;;;;;6.95;2.53;;;;;;;28.26;89.09;100285.38;5100344;28;20446;-72
2022/06/09 11:19:40;;;;;;;3.58;2.38;;;;;;;28.35;89.09;100282.63;5119430;28;20015;-76
2022/06/09 11:22:45;;;;;;;9.45;3.00;;;;;;;28.51;87.76;100279.31;5114413;28;20467;-72
2022/06/09 11:26:02;;;;;;;4.10;2.60;;;;;;;28.85;85.22;100264.19;5100344;28;20075;-72
2022/06/09 11:28:56;;;;;;;5.05;2.65;;;;;;;28.76;85.51;100254.31;5116598;28;20038;-74
2022/06/09 11:32:14;;;;;;;7.78;3.70;;;;;;;29.08;83.61;100258.19;5116506;28;20024;-73
2022/06/09 11:35:35;;;;;;;4.60;2.90;;;;;;;28.87;82.01;100265.72;5100926;28;20042;-73
2022/06/09 11:38:41;;;;;;;5.85;2.78;;;;;;;29.31;82.30;100256.69;5000260;28;20030;-72
2022/06/09 11:41:47;;;;;;;7.28;2.80;;;;;;;29.25;80.01;100251.91;5116334;28;20027;-73
2022/06/09 11:44:38;;;;;;;4.72;2.97;;;;;;;29.35;78.25;100249.13;5100911;28;20023;-72
2022/06/09 11:47:31;;;;;;;7.63;2.65;;;;;;;29.26;76.95;100256.34;5115621;28;20019;-72
2022/06/09 11:50:21;;;;;;;3.95;2.47;;;;;;;29.03;73.83;100254.25;5116325;28;20122;-72
2022/06/09 11:53:13;;;;;;;3.20;2.50;;;;;;;28.89;79.20;100244.00;5116333;28;20020;-72
2022/06/09 11:56:33;;;;;;;6.70;2.72;;;;;;;28.82;79.14;100246.47;5115630;28;20034;-73
2022/06/09 11:59:21;;;;;;;5.95;2.83;;;;;;;28.88;76.71;100234.19;5114906;28;20024;-71
2022/06/09 12:02:28;;;;;;;4.47;2.40;;;;;;;29.74;73.94;100235.06;5114930;28;20046;-72
2022/06/09 12:05:35;;;;;;;4.18;2.42;;;;;;;29.79;74.39;100230.06;5116076;28;20019;-69
2022/06/09 12:09:02;;;;;;;4.07;2.40;;;;;;;29.53;73.16;100239.16;5114462;28;20099;-71
2022/06/09 12:11:51;;;;;;;3.40;2.47;;;;;;;29.35;75.48;100235.63;5013793;28;20040;-71
2022/06/09 12:14:37;;;;;;;4.32;2.58;;;;;;;29.77;73.34;100239.34;5114801;28;20431;-70
2022/06/09 12:17:32;;;;;;;5.60;2.50;;;;;;;29.33;75.97;100225.00;5114074;28;20063;-69
2022/06/09 12:20:47;;;;;;;6.20;2.55;;;;;;;29.70;74.21;100231.00;5114395;28;20028;-69
2022/06/09 12:24:02;;;;;;;3.92;2.40;;;;;;;30.03;71.65;100226.63;5091948;28;20123;-69
2022/06/09 12:26:55;;;;;;;6.93;2.40;;;;;;;30.08;72.72;100230.53;5078417;28;20471;-70
2022/06/09 12:30:15;;;;;;;3.40;2.55;;;;;;;29.67;75.35;100223.25;5115063;28;20042;-72
2022/06/09 12:33:31;;;;;;;5.53;2.45;;;;;;;28.66;81.48;100213.94;5114530;28;20024;-74
2022/06/09 12:37:05;;;;;;;4.45;2.30;;;;;;;29.72;77.67;100220.03;5116606;28;20028;-75
2022/06/09 12:40:14;;;;;;;6.32;2.30;;;;;;;28.86;79.35;100222.72;5094730;28;20019;-72
2022/06/09 12:43:07;;;;;;;10.48;3.70;;;;;;;28.62;86.05;100209.84;5114050;28;20027;-72
2022/06/09 12:46:22;;;;;;;18.45;13.05;;;;;;;29.24;83.02;100215.16;5114981;28;20027;-72
2022/06/09 12:49:23;;;;;;;5.13;2.63;;;;;;;29.43;76.15;100209.56;5114666;28;20066;-73
2022/06/09 12:52:33;;;;;;;5.38;2.58;;;;;;;29.72;76.46;100211.94;5101119;28;20027;-76
2022/06/09 12:55:24;;;;;;;3.65;2.53;;;;;;;29.97;73.83;100211.91;5099888;28;20023;-75
2022/06/09 12:58:16;;;;;;;7.68;2.90;;;;;;;29.99;77.14;100206.34;5099590;28;20020;-76
2022/06/09 13:01:10;;;;;;;3.92;2.40;;;;;;;29.86;74.10;100217.56;5099234;28;20031;-77
2022/06/09 13:04:04;;;;;;;4.30;2.88;;;;;;;29.93;73.10;100217.81;5104671;23;20087;-78
2022/06/09 13:06:50;;;;;;;7.40;3.67;;;;;;;29.28;76.53;100219.22;5059811;28;20458;-74
2022/06/09 13:09:39;;;;;;;4.03;2.22;;;;;;;29.67;77.91;100220.53;5073811;28;20437;-74
2022/06/09 13:15:37;;;;;;;6.38;2.50;;;;;;;29.41;76.35;100210.72;5056746;28;20033;-76
2022/06/09 13:18:44;;;;;;;7.40;2.30;;;;;;;28.91;79.33;100213.16;5054198;28;20063;-74
2022/06/09 13:21:49;;;;;;;3.33;2.17;;;;;;;29.46;77.01;100211.94;5054248;28;20031;-75
2022/06/09 13:24:39;;;;;;;7.15;2.45;;;;;;;28.83;76.42;100215.78;5053767;28;20025;-75
2022/06/09 13:27:30;;;;;;;3.53;2.13;;;;;;;28.42;78.86;100213.69;5054537;28;20036;-74
2022/06/09 13:30:42;;;;;;;5.65;2.20;;;;;;;28.61;78.88;100197.34;5040474;28;20449;-74
2022/06/09 13:34:16;;;;;;;8.05;2.45;;;;;;;29.26;77.97;100201.50;5054550;28;20466;-72
2022/06/09 13:37:48;;;;;;;7.63;2.40;;;;;;;29.09;79.65;100202.38;5054886;28;20017;-75
2022/06/09 13:41:17;;;;;;;5.78;2.40;;;;;;;28.36;84.46;100198.06;5037423;28;20171;-71